Time;durP1;ratioP1;P1;durP2;ratioP2;P2;SDS_P1;SDS_P2;PMS_P1;PMS_P2;Temp;Humidity;BMP_temperature;BMP_pressure;BME280_temperature;BME280_humidity;BME280_pressure;Samples;Min_cycle;Max_cycle;Signal;HPM_P1;HPM_P2
2022/07/14 00:01:23;;;;;;;;;;;15.30;99.90;;;;;;5009786;28;19935;-72
2022/07/14 00:03:49;;;;;;;;;;;15.30;99.90;;;;;;5010154;28;20859;-72
2022/07/14 00:06:15;;;;;;;;;;;15.30;99.90;;;;;;5009628;28;20268;-72
2022/07/14 00:08:43;;;;;;;;;;;15.20;99.90;;;;;;5013118;28;20535;-72
2022/07/14 00:11:10;;;;;;;;;;;15.20;99.90;;;;;;5011186;28;20360;-72
2022/07/14 00:13:35;;;;;;;;;;;15.20;99.90;;;;;;5014216;28;20442;-72
2022/07/14 00:16:01;;;;;;;;;;;15.20;99.90;;;;;;5010778;28;19920;-71
2022/07/14 00:18:27;;;;;;;;;;;15.20;99.90;;;;;;5013445;28;19968;-71
2022/07/14 00:20:52;;;;;;;;;;;15.10;99.90;;;;;;5025909;28;19994;-71
2022/07/14 00:23:21;;;;;;;;;;;15.10;99.90;;;;;;5009294;28;19924;-71
2022/07/14 00:25:46;;;;;;;;;;;15.10;99.90;;;;;;4997606;28;20296;-71
2022/07/14 00:28:12;;;;;;;;;;;15.10;99.90;;;;;;5014179;28;19923;-71
2022/07/14 00:30:37;;;;;;;;;;;15.00;99.90;;;;;;5011505;28;19921;-72
2022/07/14 00:33:03;;;;;;;;;;;15.00;99.90;;;;;;5014542;28;19971;-72
2022/07/14 00:35:29;;;;;;;;;;;14.90;99.90;;;;;;5014261;28;19936;-72
2022/07/14 00:37:54;;;;;;;;;;;14.90;99.90;;;;;;5015998;28;19921;-72
2022/07/14 00:40:20;;;;;;;;;;;14.80;99.90;;;;;;4997015;28;19963;-71
2022/07/14 00:42:46;;;;;;;;;;;14.80;99.90;;;;;;5011678;28;19917;-71
2022/07/14 00:45:13;;;;;;;;;;;14.70;99.90;;;;;;5024308;28;19925;-71
2022/07/14 00:47:39;;;;;;;;;;;14.70;99.90;;;;;;5014255;28;20277;-72
2022/07/14 00:50:05;;;;;;;;;;;14.70;99.90;;;;;;5008475;28;19921;-72
2022/07/14 00:52:31;;;;;;;;;;;14.60;99.90;;;;;;5010391;28;20318;-72
2022/07/14 00:54:57;;;;;;;;;;;14.60;99.90;;;;;;5008615;28;19927;-72
2022/07/14 00:57:23;;;;;;;;;;;14.60;99.90;;;;;;5012960;28;19993;-72
2022/07/14 00:59:49;;;;;;;;;;;14.60;99.90;;;;;;5008911;28;20300;-72
2022/07/14 01:02:17;;;;;;;;;;;14.60;99.90;;;;;;5009379;28;19944;-72
2022/07/14 01:04:45;;;;;;;;;;;14.50;99.90;;;;;;5023524;28;19921;-72
2022/07/14 01:07:12;;;;;;;;;;;14.50;99.90;;;;;;4997212;28;21762;-72
2022/07/14 01:09:38;;;;;;;;;;;14.50;99.90;;;;;;5019106;28;20338;-72
2022/07/14 01:12:03;;;;;;;;;;;14.40;99.90;;;;;;5012258;28;20348;-72
2022/07/14 01:14:29;;;;;;;;;;;14.40;99.90;;;;;;5011847;28;20004;-72
2022/07/14 01:16:55;;;;;;;;;;;14.40;99.90;;;;;;5011909;28;19952;-72
2022/07/14 01:19:21;;;;;;;;;;;14.30;99.90;;;;;;5011900;28;19926;-72
2022/07/14 01:21:48;;;;;;;;;;;14.30;99.90;;;;;;5008992;28;20154;-72
2022/07/14 01:24:13;;;;;;;;;;;14.20;99.90;;;;;;5008640;28;19917;-72
2022/07/14 01:26:39;;;;;;;;;;;14.20;99.90;;;;;;5012389;28;19932;-72
2022/07/14 01:29:06;;;;;;;;;;;14.20;99.90;;;;;;5020869;28;19917;-72
2022/07/14 01:31:32;;;;;;;;;;;14.20;99.90;;;;;;5010469;28;20392;-72
2022/07/14 01:33:58;;;;;;;;;;;14.10;99.90;;;;;;5023872;28;19978;-72
2022/07/14 01:36:24;;;;;;;;;;;14.00;99.90;;;;;;5011865;28;20015;-71
2022/07/14 01:38:52;;;;;;;;;;;13.80;99.90;;;;;;5007641;28;20391;-72
2022/07/14 01:41:18;;;;;;;;;;;13.80;99.90;;;;;;5010636;28;20269;-72
2022/07/14 01:43:44;;;;;;;;;;;13.70;99.90;;;;;;5009201;28;19955;-72
2022/07/14 01:46:09;;;;;;;;;;;13.60;99.90;;;;;;5022605;28;19917;-71
2022/07/14 01:48:35;;;;;;;;;;;13.60;99.90;;;;;;5011256;28;19924;-71
2022/07/14 01:51:00;;;;;;;;;;;13.60;99.90;;;;;;5009302;28;19924;-71
2022/07/14 01:53:27;;;;;;;;;;;13.60;99.90;;;;;;5018577;28;19917;-71
2022/07/14 01:55:52;;;;;;;;;;;13.60;99.90;;;;;;4994683;28;19917;-71
2022/07/14 01:58:18;;;;;;;;;;;13.60;99.90;;;;;;5014347;28;19975;-71
2022/07/14 02:01:38;;;;;;;;;;;13.60;99.90;;;;;;5012181;28;19963;-71
2022/07/14 02:03:29;;;;;;;;;;;13.50;99.90;;;;;;4990731;28;19929;-71
2022/07/14 02:05:55;;;;;;;;;;;13.40;99.90;;;;;;5003785;28;19921;-71
2022/07/14 02:08:20;;;;;;;;;;;13.20;99.90;;;;;;5011661;28;19927;-71
2022/07/14 02:13:30;;;;;;;;;;;13.10;99.90;;;;;;4995845;28;19916;-71
2022/07/14 02:15:56;;;;;;;;;;;13.10;99.90;;;;;;5006315;28;19970;-71
2022/07/14 02:18:21;;;;;;;;;;;13.10;99.90;;;;;;5006604;28;19925;-72
2022/07/14 02:20:47;;;;;;;;;;;13.10;99.90;;;;;;5006682;28;19929;-72
2022/07/14 02:23:13;;;;;;;;;;;13.10;99.90;;;;;;5020775;28;19918;-72
2022/07/14 02:25:38;;;;;;;;;;;13.10;99.90;;;;;;5018426;28;20044;-72
2022/07/14 02:28:04;;;;;;;;;;;13.10;99.90;;;;;;5007376;28;19917;-72
2022/07/14 02:30:29;;;;;;;;;;;13.10;99.90;;;;;;5008383;28;20346;-72
2022/07/14 02:32:55;;;;;;;;;;;13.10;99.90;;;;;;5009859;28;19921;-72
2022/07/14 02:35:23;;;;;;;;;;;13.00;99.90;;;;;;5011521;28;19923;-72
2022/07/14 02:37:48;;;;;;;;;;;13.00;99.90;;;;;;5009445;28;19917;-72
2022/07/14 02:40:14;;;;;;;;;;;12.90;99.90;;;;;;5021525;28;19932;-72
2022/07/14 02:42:40;;;;;;;;;;;12.90;99.90;;;;;;5013764;28;19924;-72
2022/07/14 02:45:06;;;;;;;;;;;12.90;99.90;;;;;;5023174;28;20067;-72
2022/07/14 02:47:31;;;;;;;;;;;12.90;99.90;;;;;;5009582;28;19935;-72
2022/07/14 02:49:57;;;;;;;;;;;12.90;99.90;;;;;;5010703;28;19936;-72
2022/07/14 02:52:22;;;;;;;;;;;12.90;99.90;;;;;;5011414;28;19932;-71
2022/07/14 02:54:48;;;;;;;;;;;12.90;99.90;;;;;;5009816;28;19924;-72
2022/07/14 02:57:13;;;;;;;;;;;12.90;99.90;;;;;;5016553;28;19921;-72
2022/07/14 02:59:42;;;;;;;;;;;12.90;99.90;;;;;;5011096;28;19929;-72
2022/07/14 03:02:08;;;;;;;;;;;12.80;99.90;;;;;;5025050;28;19917;-72
2022/07/14 03:04:34;;;;;;;;;;;12.80;99.90;;;;;;5012655;28;19924;-72
2022/07/14 03:07:02;;;;;;;;;;;12.80;99.90;;;;;;5012668;28;19916;-71
2022/07/14 03:09:27;;;;;;;;;;;12.80;99.90;;;;;;5024654;28;19917;-71
2022/07/14 03:11:53;;;;;;;;;;;12.80;99.90;;;;;;5028934;28;19925;-71
2022/07/14 03:14:19;;;;;;;;;;;12.80;99.90;;;;;;5014854;28;19972;-71
2022/07/14 03:16:44;;;;;;;;;;;12.80;99.90;;;;;;5011621;28;19924;-71
2022/07/14 03:19:10;;;;;;;;;;;12.80;99.90;;;;;;5017999;28;19944;-71
2022/07/14 03:21:36;;;;;;;;;;;12.80;99.90;;;;;;5009353;28;19959;-71
2022/07/14 03:24:01;;;;;;;;;;;12.80;99.90;;;;;;5013559;28;19925;-71
2022/07/14 03:26:29;;;;;;;;;;;12.80;99.90;;;;;;5023353;28;19931;-72
2022/07/14 03:28:54;;;;;;;;;;;12.80;99.90;;;;;;5024229;28;19921;-72
2022/07/14 03:31:20;;;;;;;;;;;12.80;99.90;;;;;;5010265;28;19937;-72
2022/07/14 03:33:45;;;;;;;;;;;12.70;99.90;;;;;;5010106;28;20067;-71
2022/07/14 03:36:11;;;;;;;;;;;12.60;99.90;;;;;;5009261;28;19925;-71
2022/07/14 03:38:37;;;;;;;;;;;12.50;99.90;;;;;;5013599;28;19968;-71
2022/07/14 03:41:03;;;;;;;;;;;12.50;99.90;;;;;;5012809;28;19924;-72
2022/07/14 03:43:29;;;;;;;;;;;12.40;99.90;;;;;;5011737;28;20387;-72
2022/07/14 03:45:54;;;;;;;;;;;12.40;99.90;;;;;;4997246;28;19970;-72
2022/07/14 03:48:21;;;;;;;;;;;12.40;99.90;;;;;;5011306;28;20020;-72
2022/07/14 03:50:47;;;;;;;;;;;12.50;99.90;;;;;;4994673;28;19971;-71
2022/07/14 03:53:13;;;;;;;;;;;12.50;99.90;;;;;;5013115;28;19960;-72
2022/07/14 03:55:38;;;;;;;;;;;12.50;99.90;;;;;;5006940;28;20491;-72
2022/07/14 03:58:04;;;;;;;;;;;12.50;99.90;;;;;;5010079;28;20989;-72
2022/07/14 04:00:30;;;;;;;;;;;12.50;99.90;;;;;;5014632;28;19928;-72
2022/07/14 04:02:56;;;;;;;;;;;12.40;99.90;;;;;;4991687;28;19920;-72
2022/07/14 04:05:22;;;;;;;;;;;12.40;99.90;;;;;;5016665;28;19924;-72
2022/07/14 04:07:47;;;;;;;;;;;12.40;99.90;;;;;;5007497;28;20019;-71
2022/07/14 04:10:13;;;;;;;;;;;12.30;99.90;;;;;;5013586;28;19956;-71
2022/07/14 04:12:39;;;;;;;;;;;12.30;99.90;;;;;;5024316;28;19921;-71
2022/07/14 04:15:04;;;;;;;;;;;12.30;99.90;;;;;;5023362;28;19917;-71
2022/07/14 04:17:30;;;;;;;;;;;12.30;99.90;;;;;;5011539;28;19921;-71
2022/07/14 04:19:56;;;;;;;;;;;12.40;99.90;;;;;;5014558;28;19980;-71
2022/07/14 04:22:21;;;;;;;;;;;12.30;99.90;;;;;;5024551;28;19935;-71
2022/07/14 04:24:47;;;;;;;;;;;12.50;99.90;;;;;;5008133;28;19925;-71
2022/07/14 04:27:12;;;;;;;;;;;12.40;99.90;;;;;;5005449;28;20347;-71
2022/07/14 04:29:38;;;;;;;;;;;12.50;99.90;;;;;;5012517;28;19917;-71
2022/07/14 04:32:04;;;;;;;;;;;12.50;99.90;;;;;;5011974;28;20396;-71
2022/07/14 04:34:29;;;;;;;;;;;12.60;99.90;;;;;;5010685;28;20628;-71
2022/07/14 04:36:55;;;;;;;;;;;12.70;99.90;;;;;;5009558;28;20027;-72
2022/07/14 04:39:21;;;;;;;;;;;13.30;99.90;;;;;;5006484;28;19925;-72
2022/07/14 04:41:46;;;;;;;;;;;12.70;99.90;;;;;;5010026;28;19979;-72
2022/07/14 04:44:12;;;;;;;;;;;12.70;99.90;;;;;;5011649;28;19944;-71
2022/07/14 04:46:37;;;;;;;;;;;12.70;99.90;;;;;;4995519;28;19924;-71
2022/07/14 04:52:02;;;;;;;;;;;12.90;99.90;;;;;;5010340;28;19929;-71
2022/07/14 04:54:28;;;;;;;;;;;12.90;99.90;;;;;;5009502;28;20012;-71
2022/07/14 04:56:54;;;;;;;;;;;13.00;99.90;;;;;;5010331;28;20501;-73
2022/07/14 04:59:19;;;;;;;;;;;13.00;99.90;;;;;;5021627;28;20395;-71
2022/07/14 05:01:45;;;;;;;;;;;13.10;99.90;;;;;;4991797;28;20356;-73
2022/07/14 05:04:11;;;;;;;;;;;13.10;99.90;;;;;;5014843;28;20467;-73
2022/07/14 05:06:36;;;;;;;;;;;13.10;99.90;;;;;;5011250;28;20314;-72
2022/07/14 05:09:02;;;;;;;;;;;13.10;99.90;;;;;;5011145;28;20435;-72
2022/07/14 05:11:28;;;;;;;;;;;13.10;99.90;;;;;;5012419;28;19928;-71
2022/07/14 05:13:54;;;;;;;;;;;13.20;99.90;;;;;;5024654;28;19924;-72
2022/07/14 05:16:19;;;;;;;;;;;13.20;99.90;;;;;;5001315;28;20292;-72
2022/07/14 05:18:46;;;;;;;;;;;13.20;99.90;;;;;;5003717;28;20292;-73
2022/07/14 05:21:12;;;;;;;;;;;13.20;99.90;;;;;;5014639;28;19917;-72
2022/07/14 05:23:37;;;;;;;;;;;13.30;99.90;;;;;;5013824;28;20315;-73
2022/07/14 05:26:08;;;;;;;;;;;13.30;99.90;;;;;;5013502;28;20404;-73
2022/07/14 05:28:34;;;;;;;;;;;13.40;99.90;;;;;;5008126;28;19916;-73
2022/07/14 05:31:00;;;;;;;;;;;13.50;99.90;;;;;;5005366;28;19921;-73
2022/07/14 05:33:25;;;;;;;;;;;13.50;99.90;;;;;;5006619;28;19917;-73
2022/07/14 05:35:51;;;;;;;;;;;13.60;99.90;;;;;;5019786;28;19921;-73
2022/07/14 05:38:16;;;;;;;;;;;13.70;99.90;;;;;;5011671;28;20449;-73
2022/07/14 05:40:42;;;;;;;;;;;13.70;99.90;;;;;;5004374;28;19959;-74
2022/07/14 05:43:07;;;;;;;;;;;13.80;99.90;;;;;;5010876;28;19922;-73
2022/07/14 05:45:33;;;;;;;;;;;14.00;99.90;;;;;;5006809;28;19990;-73
2022/07/14 05:47:58;;;;;;;;;;;14.00;99.90;;;;;;5009339;28;19917;-73
2022/07/14 05:50:25;;;;;;;;;;;14.10;99.90;;;;;;5016929;28;20027;-73
2022/07/14 05:52:51;;;;;;;;;;;14.20;99.90;;;;;;5014003;28;19929;-73
2022/07/14 05:55:16;;;;;;;;;;;14.30;99.90;;;;;;5004662;28;19917;-73
2022/07/14 05:57:42;;;;;;;;;;;14.40;99.90;;;;;;5021925;28;19932;-73
2022/07/14 06:00:08;;;;;;;;;;;14.50;99.90;;;;;;5007005;28;20287;-74
2022/07/14 06:02:34;;;;;;;;;;;14.60;99.90;;;;;;5021410;28;20007;-74
2022/07/14 06:05:00;;;;;;;;;;;14.70;99.90;;;;;;4976356;28;19935;-72
2022/07/14 06:07:25;;;;;;;;;;;14.80;99.90;;;;;;5006281;28;19924;-72
2022/07/14 06:09:51;;;;;;;;;;;14.90;99.90;;;;;;5012288;28;19920;-72
2022/07/14 06:12:16;;;;;;;;;;;15.00;99.90;;;;;;5005219;28;19925;-72
2022/07/14 06:14:43;;;;;;;;;;;15.10;99.90;;;;;;5012115;28;20288;-73
2022/07/14 06:17:09;;;;;;;;;;;15.20;99.90;;;;;;5010515;28;19916;-72
2022/07/14 06:19:35;;;;;;;;;;;15.30;99.90;;;;;;4994683;28;19927;-72
2022/07/14 06:22:05;;;;;;;;;;;15.40;99.90;;;;;;5013767;28;20003;-71
2022/07/14 06:24:31;;;;;;;;;;;15.50;99.90;;;;;;4991702;28;19921;-72
2022/07/14 06:26:56;;;;;;;;;;;15.60;99.90;;;;;;5023924;28;20123;-71
2022/07/14 06:29:22;;;;;;;;;;;15.70;99.90;;;;;;5017898;28;19916;-71
2022/07/14 06:31:49;;;;;;;;;;;15.80;99.90;;;;;;5019117;28;19922;-71
2022/07/14 06:34:14;;;;;;;;;;;15.90;99.90;;;;;;5001938;28;19945;-72
2022/07/14 06:36:40;;;;;;;;;;;15.90;99.90;;;;;;5009782;28;19917;-71
2022/07/14 06:39:05;;;;;;;;;;;16.00;99.90;;;;;;5018332;28;19989;-71
2022/07/14 06:41:31;;;;;;;;;;;16.10;99.90;;;;;;5014512;28;19972;-72
2022/07/14 06:43:56;;;;;;;;;;;16.10;99.90;;;;;;5014411;28;19921;-71
2022/07/14 06:46:22;;;;;;;;;;;16.20;99.90;;;;;;5014026;28;19928;-72
2022/07/14 06:48:47;;;;;;;;;;;16.20;99.90;;;;;;5023117;28;19917;-71
2022/07/14 06:51:13;;;;;;;;;;;16.30;99.90;;;;;;5015126;28;19971;-72
2022/07/14 06:53:38;;;;;;;;;;;16.40;99.90;;;;;;5014286;28;19928;-72
2022/07/14 06:56:04;;;;;;;;;;;16.40;99.90;;;;;;5017899;28;19916;-71
2022/07/14 06:58:30;;;;;;;;;;;16.60;99.90;;;;;;5016860;28;19917;-71
2022/07/14 07:00:55;;;;;;;;;;;16.70;99.90;;;;;;4996318;28;19920;-72
2022/07/14 07:03:21;;;;;;;;;;;16.90;99.90;;;;;;5012576;28;19995;-71
2022/07/14 07:08:31;;;;;;;;;;;17.20;99.90;;;;;;5016181;28;19917;-71
2022/07/14 07:10:57;;;;;;;;;;;17.40;99.90;;;;;;5016066;28;19925;-72
2022/07/14 07:13:24;;;;;;;;;;;17.50;99.90;;;;;;5028046;28;20390;-71
2022/07/14 07:15:49;;;;;;;;;;;17.70;99.90;;;;;;5011087;28;19996;-72
2022/07/14 07:18:15;;;;;;;;;;;17.80;99.90;;;;;;5011658;28;20003;-71
2022/07/14 07:20:40;;;;;;;;;;;17.90;99.90;;;;;;5003032;28;19992;-70
2022/07/14 07:23:06;;;;;;;;;;;18.10;99.90;;;;;;4999688;28;19921;-71
2022/07/14 07:25:32;;;;;;;;;;;18.20;99.90;;;;;;5019684;28;19924;-71
2022/07/14 07:27:58;;;;;;;;;;;18.30;99.90;;;;;;5008063;28;19917;-71
2022/07/14 07:30:24;;;;;;;;;;;18.40;99.90;;;;;;5003584;28;19932;-71
2022/07/14 07:32:50;;;;;;;;;;;18.60;99.90;;;;;;5015798;28;19921;-72
2022/07/14 07:35:15;;;;;;;;;;;18.70;99.90;;;;;;5015778;28;19960;-71
2022/07/14 07:37:41;;;;;;;;;;;18.80;99.90;;;;;;5004678;28;19960;-71
2022/07/14 07:40:07;;;;;;;;;;;18.80;99.90;;;;;;5001491;28;19971;-71
2022/07/14 07:42:32;;;;;;;;;;;18.80;99.90;;;;;;5016966;28;19924;-71
2022/07/14 07:45:00;;;;;;;;;;;18.90;99.90;;;;;;5033144;28;19917;-71
2022/07/14 07:47:26;;;;;;;;;;;19.00;99.90;;;;;;5014300;28;19917;-71
2022/07/14 07:49:54;;;;;;;;;;;19.10;99.90;;;;;;5019989;28;19917;-70
2022/07/14 07:52:20;;;;;;;;;;;19.00;99.90;;;;;;5017690;28;19918;-71
2022/07/14 07:54:46;;;;;;;;;;;18.90;99.90;;;;;;5039304;28;19917;-71
2022/07/14 07:57:12;;;;;;;;;;;18.80;99.90;;;;;;5013802;28;19966;-71
2022/07/14 07:59:38;;;;;;;;;;;18.80;99.90;;;;;;5008694;28;20000;-71
2022/07/14 08:02:04;;;;;;;;;;;18.70;99.90;;;;;;5013710;28;19917;-70
2022/07/14 08:04:30;;;;;;;;;;;18.70;99.90;;;;;;5016171;28;19936;-72
2022/07/14 08:06:56;;;;;;;;;;;18.70;99.90;;;;;;5003730;28;19952;-71
2022/07/14 08:09:22;;;;;;;;;;;18.80;99.90;;;;;;5028830;28;19990;-72
2022/07/14 08:11:47;;;;;;;;;;;19.00;99.90;;;;;;5012422;28;19924;-72
2022/07/14 08:16:57;;;;;;;;;;;19.50;99.90;;;;;;5012422;28;20067;-71
2022/07/14 08:19:23;;;;;;;;;;;19.80;99.90;;;;;;5025623;28;19925;-71
2022/07/14 08:21:49;;;;;;;;;;;20.00;99.90;;;;;;5017539;28;19921;-71
2022/07/14 08:24:14;;;;;;;;;;;20.10;99.90;;;;;;5016606;28;19918;-71
2022/07/14 08:26:40;;;;;;;;;;;20.30;99.90;;;;;;5017235;28;19916;-71
2022/07/14 08:29:07;;;;;;;;;;;20.50;99.90;;;;;;5007864;28;19948;-70
2022/07/14 08:31:32;;;;;;;;;;;20.60;99.90;;;;;;5031504;28;19924;-71
2022/07/14 08:33:58;;;;;;;;;;;20.70;99.90;;;;;;5014189;28;19955;-71
2022/07/14 08:36:23;;;;;;;;;;;20.90;99.90;;;;;;5023459;28;19943;-71
2022/07/14 08:38:49;;;;;;;;;;;21.00;99.90;;;;;;5023213;28;19923;-71
2022/07/14 08:41:14;;;;;;;;;;;21.00;99.90;;;;;;5044574;28;19917;-72
2022/07/14 08:43:40;;;;;;;;;;;21.10;99.90;;;;;;5008065;28;20531;-71
2022/07/14 08:46:05;;;;;;;;;;;21.20;99.90;;;;;;5014788;28;19987;-71
2022/07/14 08:48:31;;;;;;;;;;;22.10;99.90;;;;;;5038675;28;19918;-71
2022/07/14 08:50:58;;;;;;;;;;;21.50;99.90;;;;;;5019231;28;19929;-71
2022/07/14 08:53:25;;;;;;;;;;;21.60;99.90;;;;;;5004303;28;19963;-71
2022/07/14 08:55:51;;;;;;;;;;;21.90;99.90;;;;;;5012507;28;19953;-71
2022/07/14 08:58:16;;;;;;;;;;;22.10;99.20;;;;;;5019589;28;20370;-71
2022/07/14 09:00:42;;;;;;;;;;;22.10;97.70;;;;;;5015989;28;19971;-71
2022/07/14 09:03:07;;;;;;;;;;;22.20;97.30;;;;;;5017418;28;20290;-71
2022/07/14 09:05:33;;;;;;;;;;;22.20;98.60;;;;;;5012465;28;20410;-72
2022/07/14 09:07:59;;;;;;;;;;;22.10;94.30;;;;;;5016457;28;20425;-71
2022/07/14 09:10:26;;;;;;;;;;;22.20;96.50;;;;;;5009835;28;20043;-72
2022/07/14 09:13:08;;;;;;;;;;;23.00;97.80;;;;;;5019074;28;19924;-70
2022/07/14 09:15:46;;;;;;;;;;;22.50;96.00;;;;;;5036020;28;19924;-71
2022/07/14 09:18:18;;;;;;;;;;;22.50;95.80;;;;;;5008433;28;19921;-71
2022/07/14 09:20:44;;;;;;;;;;;22.40;97.80;;;;;;5005358;28;20390;-71
2022/07/14 09:23:10;;;;;;;;;;;22.30;95.20;;;;;;5005893;28;20007;-71
2022/07/14 09:25:37;;;;;;;;;;;22.40;97.10;;;;;;5015119;28;20391;-72
2022/07/14 09:28:03;;;;;;;;;;;22.50;97.90;;;;;;5012120;28;19916;-71
2022/07/14 09:30:29;;;;;;;;;;;22.50;94.00;;;;;;5036777;28;19921;-71
2022/07/14 09:32:56;;;;;;;;;;;22.60;95.20;;;;;;5016414;28;19917;-72
2022/07/14 09:35:22;;;;;;;;;;;22.60;91.70;;;;;;5014640;28;19951;-71
2022/07/14 09:37:48;;;;;;;;;;;22.60;91.70;;;;;;5019218;28;20363;-71
2022/07/14 09:40:20;;;;;;;;;;;22.70;87.80;;;;;;5017777;28;19924;-71
2022/07/14 09:42:50;;;;;;;;;;;22.50;93.70;;;;;;5024648;28;20269;-71
2022/07/14 09:45:17;;;;;;;;;;;22.50;93.90;;;;;;5017737;28;19982;-71
2022/07/14 09:47:57;;;;;;;;;;;22.50;92.70;;;;;;5015846;28;19951;-71
2022/07/14 09:50:31;;;;;;;;;;;22.40;94.10;;;;;;5012120;28;19926;-71
2022/07/14 09:52:56;;;;;;;;;;;22.50;94.60;;;;;;5017718;28;19924;-72
2022/07/14 09:55:22;;;;;;;;;;;22.40;93.20;;;;;;5025198;28;20306;-71
2022/07/14 09:57:48;;;;;;;;;;;22.50;93.10;;;;;;5016178;28;20375;-71
2022/07/14 10:00:18;;;;;;;;;;;22.90;91.90;;;;;;5010716;28;20007;-71
2022/07/14 10:02:43;;;;;;;;;;;22.30;92.20;;;;;;5019103;28;19993;-70
2022/07/14 10:05:09;;;;;;;;;;;22.30;94.00;;;;;;5015034;28;20295;-71
2022/07/14 10:07:36;;;;;;;;;;;22.30;95.00;;;;;;5013479;28;20287;-71
2022/07/14 10:10:02;;;;;;;;;;;22.30;94.70;;;;;;5014475;28;19979;-71
2022/07/14 10:12:28;;;;;;;;;;;22.30;95.60;;;;;;5012725;28;19964;-71
2022/07/14 10:14:54;;;;;;;;;;;22.20;94.80;;;;;;5009670;28;20318;-71
2022/07/14 10:17:19;;;;;;;;;;;22.20;94.10;;;;;;5003787;28;19943;-71
2022/07/14 10:19:46;;;;;;;;;;;22.20;96.90;;;;;;5020556;28;19916;-71
2022/07/14 10:22:13;;;;;;;;;;;22.30;96.00;;;;;;5032700;28;20275;-71
2022/07/14 10:24:39;;;;;;;;;;;22.30;95.90;;;;;;5019525;28;19917;-71
2022/07/14 10:27:05;;;;;;;;;;;22.30;95.80;;;;;;5013429;28;19963;-72
2022/07/14 10:29:30;;;;;;;;;;;22.30;94.50;;;;;;4994478;28;19917;-71
2022/07/14 10:32:15;;;;;;;;;;;22.40;96.50;;;;;;5007784;28;19928;-72
2022/07/14 10:34:44;;;;;;;;;;;22.30;96.10;;;;;;5023450;28;20296;-71
2022/07/14 10:37:20;;;;;;;;;;;22.40;97.80;;;;;;5019714;28;19942;-72
2022/07/14 10:40:04;;;;;;;;;;;22.40;95.80;;;;;;5026140;28;19924;-71
2022/07/14 10:42:51;;;;;;;;;;;22.40;97.40;;;;;;5017994;28;19917;-71
2022/07/14 10:45:16;;;;;;;;;;;22.50;97.10;;;;;;5012217;28;20442;-70
2022/07/14 10:47:51;;;;;;;;;;;22.60;96.70;;;;;;5009714;28;19921;-72
2022/07/14 10:50:18;;;;;;;;;;;22.60;96.50;;;;;;5020706;28;20345;-72
2022/07/14 10:52:50;;;;;;;;;;;22.60;96.30;;;;;;5019791;28;20393;-71
2022/07/14 10:55:16;;;;;;;;;;;22.60;96.40;;;;;;5021439;28;19978;-72
2022/07/14 10:58:01;;;;;;;;;;;22.60;95.80;;;;;;5007512;28;20329;-71
2022/07/14 11:00:39;;;;;;;;;;;22.60;96.30;;;;;;5011337;28;19928;-71
2022/07/14 11:03:17;;;;;;;;;;;22.80;95.60;;;;;;5017385;28;20363;-71
2022/07/14 11:06:11;;;;;;;;;;;22.90;93.80;;;;;;5016088;28;20387;-71
2022/07/14 11:08:38;;;;;;;;;;;22.90;95.80;;;;;;5009470;28;19925;-71
2022/07/14 11:11:08;;;;;;;;;;;22.80;95.80;;;;;;4996448;28;20429;-72
2022/07/14 11:13:52;;;;;;;;;;;22.70;96.60;;;;;;5012199;28;20407;-72
2022/07/14 11:16:18;;;;;;;;;;;22.80;96.40;;;;;;5013287;28;20467;-72
2022/07/14 11:18:44;;;;;;;;;;;22.80;93.80;;;;;;5015952;28;20089;-70
2022/07/14 11:21:13;;;;;;;;;;;22.60;95.00;;;;;;5006150;28;19925;-72
2022/07/14 11:23:51;;;;;;;;;;;22.60;95.70;;;;;;5022535;28;20383;-71
2022/07/14 11:26:32;;;;;;;;;;;22.60;95.60;;;;;;5012350;28;19917;-72
2022/07/14 11:28:57;;;;;;;;;;;22.60;97.80;;;;;;4998344;28;21103;-72
2022/07/14 11:31:24;;;;;;;;;;;22.70;97.20;;;;;;5011249;28;20008;-72
2022/07/14 11:36:59;;;;;;;;;;;22.80;94.60;;;;;;5021356;28;19917;-71
2022/07/14 11:39:27;;;;;;;;;;;22.90;94.50;;;;;;5024344;28;19916;-71
2022/07/14 11:42:06;;;;;;;;;;;23.60;96.00;;;;;;5022165;28;19963;-72
2022/07/14 11:44:35;;;;;;;;;;;22.80;94.40;;;;;;5019472;28;19979;-72
2022/07/14 11:47:02;;;;;;;;;;;22.90;93.00;;;;;;5020823;28;19916;-71
2022/07/14 11:49:28;;;;;;;;;;;22.80;94.00;;;;;;5028080;28;19925;-71
2022/07/14 11:51:54;;;;;;;;;;;22.70;96.20;;;;;;5033538;28;19975;-72
2022/07/14 11:54:24;;;;;;;;;;;22.80;96.10;;;;;;5008850;28;20287;-71
2022/07/14 11:57:00;;;;;;;;;;;22.80;96.30;;;;;;5025288;28;19925;-71
2022/07/14 11:59:25;;;;;;;;;;;22.80;96.20;;;;;;4999826;28;19943;-72
2022/07/14 12:01:51;;;;;;;;;;;22.90;95.30;;;;;;5022176;28;19924;-71
2022/07/14 12:04:17;;;;;;;;;;;23.00;96.00;;;;;;5020580;28;19971;-72
2022/07/14 12:06:43;;;;;;;;;;;22.70;95.80;;;;;;5018485;28;19925;-71
2022/07/14 12:09:09;;;;;;;;;;;23.00;93.60;;;;;;5030985;28;19923;-72
2022/07/14 12:11:35;;;;;;;;;;;23.10;95.40;;;;;;5020391;28;19920;-70
2022/07/14 12:14:00;;;;;;;;;;;23.30;93.00;;;;;;5012600;28;19924;-72
2022/07/14 12:16:26;;;;;;;;;;;23.60;91.50;;;;;;5024157;28;20388;-71
2022/07/14 12:18:52;;;;;;;;;;;24.40;91.10;;;;;;5018978;28;19931;-71
2022/07/14 12:21:30;;;;;;;;;;;23.90;90.40;;;;;;5014591;28;19920;-71
2022/07/14 12:23:56;;;;;;;;;;;23.90;91.90;;;;;;5032305;28;20327;-71
2022/07/14 12:26:23;;;;;;;;;;;23.90;90.60;;;;;;5015278;28;19917;-71
2022/07/14 12:28:50;;;;;;;;;;;23.70;90.10;;;;;;5007654;28;20007;-71
2022/07/14 12:31:15;;;;;;;;;;;23.50;90.70;;;;;;5011192;28;20410;-71
2022/07/14 12:33:41;;;;;;;;;;;23.50;92.10;;;;;;5010448;28;19925;-72
2022/07/14 12:36:12;;;;;;;;;;;23.60;91.00;;;;;;5021771;28;20380;-72
2022/07/14 12:38:38;;;;;;;;;;;23.70;91.00;;;;;;5013645;28;19929;-72
2022/07/14 12:41:05;;;;;;;;;;;23.70;90.00;;;;;;5019340;28;19917;-72
2022/07/14 12:43:34;;;;;;;;;;;23.60;90.30;;;;;;5042781;28;19920;-72
2022/07/14 12:46:17;;;;;;;;;;;23.30;90.80;;;;;;4992401;28;19925;-72
2022/07/14 12:48:53;;;;;;;;;;;23.30;91.20;;;;;;5031203;28;19920;-72
2022/07/14 12:51:48;;;;;;;;;;;23.10;91.10;;;;;;5019273;28;19921;-72
2022/07/14 12:54:15;;;;;;;;;;;23.10;91.90;;;;;;4999227;28;20005;-72
2022/07/14 12:56:41;;;;;;;;;;;22.90;92.10;;;;;;5023176;28;19920;-72
2022/07/14 12:59:09;;;;;;;;;;;22.80;94.30;;;;;;5012615;28;19928;-72
2022/07/14 13:01:45;;;;;;;;;;;22.60;95.00;;;;;;5016587;28;20015;-72
2022/07/14 13:04:11;;;;;;;;;;;22.60;96.40;;;;;;5007550;28;19917;-72
2022/07/14 13:06:42;;;;;;;;;;;22.50;94.80;;;;;;5007774;28;20008;-72
2022/07/14 13:09:26;;;;;;;;;;;22.40;95.70;;;;;;4998103;28;19917;-72
2022/07/14 13:11:52;;;;;;;;;;;22.30;96.40;;;;;;5015956;28;20008;-72
2022/07/14 13:14:18;;;;;;;;;;;22.80;94.90;;;;;;5022230;28;20044;-72
2022/07/14 13:16:44;;;;;;;;;;;22.20;95.20;;;;;;5002627;28;19956;-72
2022/07/14 13:19:14;;;;;;;;;;;22.20;95.10;;;;;;5018409;28;19924;-72
2022/07/14 13:21:47;;;;;;;;;;;22.20;94.60;;;;;;5020346;28;19970;-72
2022/07/14 13:24:20;;;;;;;;;;;22.10;94.60;;;;;;5018821;28;19917;-72
2022/07/14 13:27:05;;;;;;;;;;;22.20;95.20;;;;;;5007274;28;19929;-72
2022/07/14 13:29:31;;;;;;;;;;;22.10;95.40;;;;;;5016518;28;19970;-72
2022/07/14 13:31:57;;;;;;;;;;;23.00;96.70;;;;;;5022121;28;19932;-72
2022/07/14 13:34:23;;;;;;;;;;;22.10;96.10;;;;;;5008342;28;19922;-72
2022/07/14 13:36:48;;;;;;;;;;;22.10;97.10;;;;;;4987056;28;19918;-72
2022/07/14 13:39:14;;;;;;;;;;;22.10;95.50;;;;;;5037875;28;19917;-72
2022/07/14 13:41:41;;;;;;;;;;;22.20;96.40;;;;;;5020437;28;19917;-72
2022/07/14 13:44:07;;;;;;;;;;;22.50;96.80;;;;;;5020774;28;19917;-72
2022/07/14 13:46:34;;;;;;;;;;;22.80;97.40;;;;;;5017345;28;20287;-72
2022/07/14 13:48:59;;;;;;;;;;;23.00;96.90;;;;;;5002223;28;19929;-72
2022/07/14 13:54:09;;;;;;;;;;;22.70;91.60;;;;;;5019238;28;19917;-72
2022/07/14 13:56:35;;;;;;;;;;;22.60;94.50;;;;;;5007824;28;19972;-72
2022/07/14 13:59:01;;;;;;;;;;;22.50;96.90;;;;;;5012435;28;19923;-72
2022/07/14 14:01:27;;;;;;;;;;;22.40;96.90;;;;;;5016670;28;19921;-72
2022/07/14 14:03:52;;;;;;;;;;;22.30;98.30;;;;;;5023766;28;20295;-72
2022/07/14 14:06:18;;;;;;;;;;;22.30;97.50;;;;;;5019527;28;19967;-72
2022/07/14 14:08:43;;;;;;;;;;;22.30;96.80;;;;;;5020097;28;19925;-72
2022/07/14 14:11:10;;;;;;;;;;;22.30;97.40;;;;;;5006238;28;19924;-72
2022/07/14 14:13:35;;;;;;;;;;;22.30;97.70;;;;;;5018261;28;19960;-72
2022/07/14 14:16:02;;;;;;;;;;;22.40;98.50;;;;;;5025336;28;19963;-72
2022/07/14 14:18:30;;;;;;;;;;;22.40;98.80;;;;;;5015234;28;19917;-72
2022/07/14 14:20:56;;;;;;;;;;;22.50;98.50;;;;;;5034146;28;19946;-72
2022/07/14 14:23:21;;;;;;;;;;;22.50;97.80;;;;;;5010292;28;19918;-72
2022/07/14 14:25:47;;;;;;;;;;;22.40;94.10;;;;;;5032926;28;19986;-72
2022/07/14 14:28:12;;;;;;;;;;;22.20;93.50;;;;;;5021740;28;19917;-72
2022/07/14 14:30:38;;;;;;;;;;;22.00;94.40;;;;;;4993072;28;20011;-73
2022/07/14 14:33:04;;;;;;;;;;;21.90;95.90;;;;;;5028193;28;19921;-72